GMMELIML

Guest
Details From GMME - Sale
To LIML - Milano Linate
Flight Number -
Tags Generated
Created
Modified
Stats Distance 1,006 nm / 1,862 km
Max Altitude 0 ft / 0 m
Waypoints 5
Social Downloads 0
Likes 0
Share VATSIM

Download

Looking for another format? Having issues loading an existing format? Contact us
Advertisement - Login to hide

Notes

Generated

Route

GMME ROLAS BARAT RIGON LIML

ID Type Via Altitude Latitude Longitude Leg Dist Tot Dist Heading (true) Name
O GMME APT - 0 ft / 0 m 34.03799˚ -6.76139˚ - 0 nm - -
ROLAS FIX - 0 ft / 0 m 37.41565˚ -2.85436˚ 278 nm 278 nm 42° / 44° -
BARAT FIX - 0 ft / 0 m 43.00433˚ 5.04131˚ 493 nm 771 nm 45° / 50° -
RIGON FIX - 0 ft / 0 m 45.31750˚ 8.97889˚ 219 nm 990 nm 49° / 52° -
O LIML APT - 0 ft / 0 m 45.45804˚ 9.26826˚ 14 nm 1005 nm 55° / 55° -

Altitude Profile

Advertisement - Login to hide

Weather


0- 5 10 15 20 25 30 35+ Temperature / ° C

Clouds and Precipitation
Forecast for 2017-12-12 18:00 UTC. Updated 30 minutes ago

Ground ~20,000 ft ~40,000 ft Winds

GMME

Details ICAO GMME (RBA)
Name SALE
Region Morocco
Timezone Africa/Casablanca (UTC+0.0)
Stats Elevation 276 ft / 84 m (AMSL)
Location 34.051468° -6.751519°
Runways 1
Magnetic Variation 1.551° W

METAR

GMME 121730Z 02006KT 8000 SCT013 SCT020 11/06 Q1020 NOSIG

Decode

TAF

TAF GMME 121100Z 1212/1318 36010KT 5000 SCT013 BKN020 TEMPO 1220/1307 VRB02KT 3000 BR SCT008 BKN013 BECMG 1311/1313 06010KT

Decode

Departure Runways

ID Width Length Bearing (true) Bearing (mag) Surface Threshold Offset Overrun Length
04 148 ft / 45 m 11,503 ft / 3,506 m 31.24° 32.79° Asphalt 0 ft / 0 m 197 ft / 60 m
22 148 ft / 45 m 11,503 ft / 3,506 m 211.25° 212.80° Asphalt 0 ft / 0 m 197 ft / 60 m

LIML

Details ICAO LIML (LIN)
Name Milano Linate
Region Italy
Timezone Europe/Rome (UTC+1.0)
Stats Elevation 353 ft / 108 m (AMSL)
Location 45.450302° 9.272801°
Runways 2
Magnetic Variation 2.500° E

METAR

LIML 121720Z 24003KT 210V280 0300 R36/0350U FG VV/// 03/02 Q1012 NOSIG

Decode

TAF

TAF LIML 121100Z 1212/1312 VRB05KT 6000 SCT020 SCT060 BECMG 1215/1218 3000 BR BECMG 1222/1224 1500 BCFG TEMPO 1300/1307 0400 FZFG BKN005 BECMG 1307/1310 6000 NSW

Decode

Destination Runways

ID Width Length Bearing (true) Bearing (mag) Surface Threshold Offset Overrun Length
17 72 ft / 22 m 1,975 ft / 602 m 175.64° 173.14° Asphalt 200 ft / 61 m 0 ft / 0 m
18 197 ft / 60 m 8,017 ft / 2,443 m 175.67° 173.17° Asphalt 0 ft / 0 m 190 ft / 58 m
35 72 ft / 22 m 1,975 ft / 602 m 355.64° 353.14° Asphalt 200 ft / 61 m 0 ft / 0 m
36 197 ft / 60 m 8,017 ft / 2,443 m 355.68° 353.18° Asphalt 0 ft / 0 m 980 ft / 299 m

Approach Navaids

Runway Type Ident Frequency Range Bearing (true) Bearing (mag) Slope Elevation
36 Localiser ILNT 109.55 MHz 18 nm / 33 km 355.68° 353.18° - 353 ft / 108 m (AMSL)
36 Glidescope ILNT 109.55 MHz 10 nm / 19 km 355.68° 353.18° 3.00° 352 ft / 107 m (AMSL)
36 DME ILNT 109.55 MHz 25 nm / 46 km - - - 352 ft / 107 m (AMSL)

Popular Alternatives